sensor_id;sensor_type;location;lat;lon;timestamp;pressure;altitude;pressure_sealevel;temperature;humidity
49342;BME280;35210;41.606;-87.602;2022-10-15T00:01:34;98385.13;;;15.58;41.19
49342;BME280;35210;41.606;-87.602;2022-10-15T00:04:04;98399.00;;;15.68;42.20
49342;BME280;35210;41.606;-87.602;2022-10-15T00:06:32;98411.56;;;15.59;44.78
49342;BME280;35210;41.606;-87.602;2022-10-15T00:09:01;98416.81;;;15.28;49.05
49342;BME280;35210;41.606;-87.602;2022-10-15T00:11:30;98428.50;;;15.19;51.70
49342;BME280;35210;41.606;-87.602;2022-10-15T00:13:59;98432.03;;;15.03;54.17
49342;BME280;35210;41.606;-87.602;2022-10-15T00:16:28;98446.00;;;14.89;55.92
49342;BME280;35210;41.606;-87.602;2022-10-15T00:18:57;98439.75;;;14.74;56.76
49342;BME280;35210;41.606;-87.602;2022-10-15T00:21:26;98437.28;;;14.56;58.22
49342;BME280;35210;41.606;-87.602;2022-10-15T00:23:56;98434.28;;;14.51;58.82
49342;BME280;35210;41.606;-87.602;2022-10-15T00:26:27;98435.97;;;14.44;59.73
49342;BME280;35210;41.606;-87.602;2022-10-15T00:28:58;98437.94;;;14.42;59.63
49342;BME280;35210;41.606;-87.602;2022-10-15T00:31:28;98439.09;;;14.31;60.40
49342;BME280;35210;41.606;-87.602;2022-10-15T00:33:59;98438.75;;;14.26;60.82
49342;BME280;35210;41.606;-87.602;2022-10-15T00:36:29;98431.94;;;14.32;61.07
49342;BME280;35210;41.606;-87.602;2022-10-15T00:39:04;98429.28;;;14.24;61.34
49342;BME280;35210;41.606;-87.602;2022-10-15T00:41:35;98434.28;;;14.27;60.55
49342;BME280;35210;41.606;-87.602;2022-10-15T00:47:12;98423.31;;;14.22;60.44
49342;BME280;35210;41.606;-87.602;2022-10-15T00:49:47;98429.63;;;14.21;60.20
49342;BME280;35210;41.606;-87.602;2022-10-15T00:52:24;98433.09;;;14.21;60.16
49342;BME280;35210;41.606;-87.602;2022-10-15T00:54:57;98439.06;;;14.15;60.33
49342;BME280;35210;41.606;-87.602;2022-10-15T00:57:27;98436.56;;;14.13;60.51
49342;BME280;35210;41.606;-87.602;2022-10-15T01:00:01;98446.38;;;14.13;60.61
49342;BME280;35210;41.606;-87.602;2022-10-15T01:02:32;98454.16;;;14.14;61.26
49342;BME280;35210;41.606;-87.602;2022-10-15T01:05:00;98469.44;;;14.12;61.46
49342;BME280;35210;41.606;-87.602;2022-10-15T01:07:28;98476.91;;;14.09;61.86
49342;BME280;35210;41.606;-87.602;2022-10-15T01:09:58;98488.19;;;14.03;63.76
49342;BME280;35210;41.606;-87.602;2022-10-15T01:12:37;98481.81;;;13.79;64.02
49342;BME280;35210;41.606;-87.602;2022-10-15T01:15:12;98506.19;;;13.75;64.50
49342;BME280;35210;41.606;-87.602;2022-10-15T01:17:46;98509.47;;;13.69;65.53
49342;BME280;35210;41.606;-87.602;2022-10-15T01:20:35;98519.59;;;13.65;66.11
49342;BME280;35210;41.606;-87.602;2022-10-15T01:23:51;98532.28;;;13.54;67.17
49342;BME280;35210;41.606;-87.602;2022-10-15T01:29:34;98551.44;;;13.31;69.24
49342;BME280;35210;41.606;-87.602;2022-10-15T01:32:18;98552.53;;;13.21;69.47
49342;BME280;35210;41.606;-87.602;2022-10-15T01:34:52;98558.03;;;13.09;70.78
49342;BME280;35210;41.606;-87.602;2022-10-15T01:37:28;98546.34;;;12.94;71.82
49342;BME280;35210;41.606;-87.602;2022-10-15T01:40:04;98540.75;;;12.79;71.69
49342;BME280;35210;41.606;-87.602;2022-10-15T01:42:39;98526.09;;;12.67;72.14
49342;BME280;35210;41.606;-87.602;2022-10-15T01:45:18;98505.31;;;12.55;72.41
49342;BME280;35210;41.606;-87.602;2022-10-15T01:47:52;98499.66;;;12.14;76.11
49342;BME280;35210;41.606;-87.602;2022-10-15T01:50:24;98503.25;;;11.95;77.06
49342;BME280;35210;41.606;-87.602;2022-10-15T01:52:55;98498.56;;;11.89;76.49
49342;BME280;35210;41.606;-87.602;2022-10-15T01:55:25;98500.63;;;11.77;77.93
49342;BME280;35210;41.606;-87.602;2022-10-15T01:57:56;98485.84;;;11.75;78.96
49342;BME280;35210;41.606;-87.602;2022-10-15T02:00:25;98490.31;;;11.74;78.99
49342;BME280;35210;41.606;-87.602;2022-10-15T02:02:58;98491.72;;;11.69;78.89
49342;BME280;35210;41.606;-87.602;2022-10-15T02:05:29;98499.22;;;11.73;79.62
49342;BME280;35210;41.606;-87.602;2022-10-15T02:08:05;98483.56;;;11.62;79.26
49342;BME280;35210;41.606;-87.602;2022-10-15T02:10:42;98487.63;;;11.57;81.16
49342;BME280;35210;41.606;-87.602;2022-10-15T02:13:22;98465.72;;;11.09;81.87
49342;BME280;35210;41.606;-87.602;2022-10-15T02:15:58;98479.16;;;11.16;83.06
49342;BME280;35210;41.606;-87.602;2022-10-15T02:18:36;98488.44;;;11.30;82.44
49342;BME280;35210;41.606;-87.602;2022-10-15T02:21:10;98504.97;;;11.32;81.98
49342;BME280;35210;41.606;-87.602;2022-10-15T02:23:45;98506.97;;;11.20;82.86
49342;BME280;35210;41.606;-87.602;2022-10-15T02:26:15;98505.00;;;11.22;83.63
49342;BME280;35210;41.606;-87.602;2022-10-15T02:28:48;98503.09;;;11.14;83.16
49342;BME280;35210;41.606;-87.602;2022-10-15T02:31:20;98509.97;;;10.98;84.91
49342;BME280;35210;41.606;-87.602;2022-10-15T02:33:52;98515.25;;;11.07;84.17
49342;BME280;35210;41.606;-87.602;2022-10-15T02:36:22;98519.03;;;10.95;84.57
49342;BME280;35210;41.606;-87.602;2022-10-15T02:38:52;98530.44;;;10.76;85.58
49342;BME280;35210;41.606;-87.602;2022-10-15T02:41:22;98546.84;;;10.80;86.81
49342;BME280;35210;41.606;-87.602;2022-10-15T02:43:50;98542.94;;;10.84;85.89
49342;BME280;35210;41.606;-87.602;2022-10-15T02:46:19;98538.78;;;10.91;86.40
49342;BME280;35210;41.606;-87.602;2022-10-15T02:48:47;98541.81;;;10.96;85.83
49342;BME280;35210;41.606;-87.602;2022-10-15T02:51:17;98562.84;;;10.78;85.50
49342;BME280;35210;41.606;-87.602;2022-10-15T02:53:46;98551.72;;;10.84;84.47
49342;BME280;35210;41.606;-87.602;2022-10-15T02:56:15;98536.97;;;10.92;84.81
49342;BME280;35210;41.606;-87.602;2022-10-15T02:58:43;98532.91;;;10.97;85.21
49342;BME280;35210;41.606;-87.602;2022-10-15T03:01:11;98516.06;;;11.08;85.17
49342;BME280;35210;41.606;-87.602;2022-10-15T03:03:39;98531.78;;;11.09;84.91
49342;BME280;35210;41.606;-87.602;2022-10-15T03:06:08;98524.78;;;11.18;85.04
49342;BME280;35210;41.606;-87.602;2022-10-15T03:08:40;98528.06;;;11.30;84.56
49342;BME280;35210;41.606;-87.602;2022-10-15T03:11:10;98528.72;;;11.41;83.89
49342;BME280;35210;41.606;-87.602;2022-10-15T03:13:38;98528.53;;;11.52;83.62
49342;BME280;35210;41.606;-87.602;2022-10-15T03:16:08;98530.16;;;11.63;83.25
49342;BME280;35210;41.606;-87.602;2022-10-15T03:18:37;98543.78;;;11.68;82.37
49342;BME280;35210;41.606;-87.602;2022-10-15T03:21:06;98548.38;;;11.66;83.04
49342;BME280;35210;41.606;-87.602;2022-10-15T03:23:34;98549.50;;;11.64;83.08
49342;BME280;35210;41.606;-87.602;2022-10-15T03:26:04;98548.53;;;11.65;83.32
49342;BME280;35210;41.606;-87.602;2022-10-15T03:28:33;98559.66;;;11.68;83.21
49342;BME280;35210;41.606;-87.602;2022-10-15T03:31:03;98563.13;;;11.69;83.20
49342;BME280;35210;41.606;-87.602;2022-10-15T03:33:31;98565.78;;;11.69;83.49
49342;BME280;35210;41.606;-87.602;2022-10-15T03:36:00;98564.94;;;11.68;83.50
49342;BME280;35210;41.606;-87.602;2022-10-15T03:38:28;98566.16;;;11.74;83.06
49342;BME280;35210;41.606;-87.602;2022-10-15T03:40:57;98567.44;;;11.79;83.13
49342;BME280;35210;41.606;-87.602;2022-10-15T03:43:26;98559.06;;;11.84;81.85
49342;BME280;35210;41.606;-87.602;2022-10-15T03:45:55;98565.75;;;11.78;81.34
49342;BME280;35210;41.606;-87.602;2022-10-15T03:48:24;98551.69;;;11.78;81.74
49342;BME280;35210;41.606;-87.602;2022-10-15T03:50:53;98557.09;;;11.76;80.27
49342;BME280;35210;41.606;-87.602;2022-10-15T03:53:23;98540.69;;;11.73;80.20
49342;BME280;35210;41.606;-87.602;2022-10-15T03:55:54;98529.59;;;11.69;80.11
49342;BME280;35210;41.606;-87.602;2022-10-15T03:58:23;98549.91;;;11.69;80.21
49342;BME280;35210;41.606;-87.602;2022-10-15T04:00:53;98539.31;;;11.69;80.36
49342;BME280;35210;41.606;-87.602;2022-10-15T04:03:24;98545.16;;;11.72;79.96
49342;BME280;35210;41.606;-87.602;2022-10-15T04:05:53;98538.75;;;11.75;79.69
49342;BME280;35210;41.606;-87.602;2022-10-15T04:08:21;98548.34;;;11.76;79.36
49342;BME280;35210;41.606;-87.602;2022-10-15T04:10:50;98550.19;;;11.66;78.75
49342;BME280;35210;41.606;-87.602;2022-10-15T04:13:18;98554.69;;;11.56;76.46
49342;BME280;35210;41.606;-87.602;2022-10-15T04:15:46;98556.78;;;11.52;76.89
49342;BME280;35210;41.606;-87.602;2022-10-15T04:18:16;98560.41;;;11.51;78.02
49342;BME280;35210;41.606;-87.602;2022-10-15T04:20:46;98565.81;;;11.59;76.76
49342;BME280;35210;41.606;-87.602;2022-10-15T04:23:15;98568.06;;;11.54;76.68
49342;BME280;35210;41.606;-87.602;2022-10-15T04:25:43;98569.03;;;11.53;76.06
49342;BME280;35210;41.606;-87.602;2022-10-15T04:28:12;98581.41;;;11.52;76.71
49342;BME280;35210;41.606;-87.602;2022-10-15T04:30:40;98570.59;;;11.46;76.20
49342;BME280;35210;41.606;-87.602;2022-10-15T04:33:09;98567.56;;;11.31;77.45
49342;BME280;35210;41.606;-87.602;2022-10-15T04:35:39;98560.59;;;11.40;76.57
49342;BME280;35210;41.606;-87.602;2022-10-15T04:38:08;98579.09;;;11.40;76.52
49342;BME280;35210;41.606;-87.602;2022-10-15T04:40:36;98569.66;;;11.37;76.72
49342;BME280;35210;41.606;-87.602;2022-10-15T04:43:06;98584.09;;;11.43;77.44
49342;BME280;35210;41.606;-87.602;2022-10-15T04:45:34;98583.97;;;11.35;76.77
49342;BME280;35210;41.606;-87.602;2022-10-15T04:48:02;98592.34;;;11.30;76.86
49342;BME280;35210;41.606;-87.602;2022-10-15T04:50:30;98595.13;;;11.29;76.51
49342;BME280;35210;41.606;-87.602;2022-10-15T04:53:02;98602.09;;;11.20;76.67
49342;BME280;35210;41.606;-87.602;2022-10-15T04:55:30;98607.38;;;11.20;76.28
49342;BME280;35210;41.606;-87.602;2022-10-15T04:58:00;98611.28;;;11.16;76.06
49342;BME280;35210;41.606;-87.602;2022-10-15T05:00:30;98622.44;;;11.10;76.30
49342;BME280;35210;41.606;-87.602;2022-10-15T05:02:58;98620.91;;;11.07;75.07
49342;BME280;35210;41.606;-87.602;2022-10-15T05:05:27;98622.59;;;10.99;74.89
49342;BME280;35210;41.606;-87.602;2022-10-15T05:08:00;98628.16;;;10.96;74.11
49342;BME280;35210;41.606;-87.602;2022-10-15T05:10:30;98629.13;;;10.85;74.38
49342;BME280;35210;41.606;-87.602;2022-10-15T05:13:01;98634.28;;;10.77;73.34
49342;BME280;35210;41.606;-87.602;2022-10-15T05:15:29;98643.56;;;10.62;73.75
49342;BME280;35210;41.606;-87.602;2022-10-15T05:17:58;98640.78;;;10.53;74.62
49342;BME280;35210;41.606;-87.602;2022-10-15T05:20:26;98646.06;;;10.53;75.57
49342;BME280;35210;41.606;-87.602;2022-10-15T05:22:55;98651.88;;;10.47;75.97
49342;BME280;35210;41.606;-87.602;2022-10-15T05:25:27;98645.63;;;10.48;75.79
49342;BME280;35210;41.606;-87.602;2022-10-15T05:27:56;98639.38;;;10.49;75.06
49342;BME280;35210;41.606;-87.602;2022-10-15T05:30:24;98638.13;;;10.44;75.21
49342;BME280;35210;41.606;-87.602;2022-10-15T05:32:53;98646.03;;;10.44;74.71
49342;BME280;35210;41.606;-87.602;2022-10-15T05:35:21;98646.47;;;10.39;75.28
49342;BME280;35210;41.606;-87.602;2022-10-15T05:37:51;98646.59;;;10.47;74.91
49342;BME280;35210;41.606;-87.602;2022-10-15T05:40:20;98650.91;;;10.39;74.42
49342;BME280;35210;41.606;-87.602;2022-10-15T05:42:52;98653.56;;;10.39;73.98
49342;BME280;35210;41.606;-87.602;2022-10-15T05:45:20;98656.03;;;10.40;74.05
49342;BME280;35210;41.606;-87.602;2022-10-15T05:47:53;98659.69;;;10.39;73.95
49342;BME280;35210;41.606;-87.602;2022-10-15T05:50:21;98660.78;;;10.37;74.24
49342;BME280;35210;41.606;-87.602;2022-10-15T05:52:50;98663.81;;;10.32;73.97
49342;BME280;35210;41.606;-87.602;2022-10-15T05:55:18;98665.50;;;10.33;75.21
49342;BME280;35210;41.606;-87.602;2022-10-15T05:57:46;98667.44;;;10.31;75.21
49342;BME280;35210;41.606;-87.602;2022-10-15T06:00:19;98673.53;;;10.32;73.64
49342;BME280;35210;41.606;-87.602;2022-10-15T06:02:47;98677.41;;;10.28;73.72
49342;BME280;35210;41.606;-87.602;2022-10-15T06:05:16;98677.34;;;10.18;73.75
49342;BME280;35210;41.606;-87.602;2022-10-15T06:07:44;98670.41;;;10.17;73.68
49342;BME280;35210;41.606;-87.602;2022-10-15T06:10:15;98681.94;;;10.16;74.36
49342;BME280;35210;41.606;-87.602;2022-10-15T06:12:48;98678.03;;;10.10;74.46
49342;BME280;35210;41.606;-87.602;2022-10-15T06:15:18;98685.53;;;10.15;73.61
49342;BME280;35210;41.606;-87.602;2022-10-15T06:17:47;98697.91;;;10.14;73.47
49342;BME280;35210;41.606;-87.602;2022-10-15T06:20:18;98698.28;;;10.10;73.19
49342;BME280;35210;41.606;-87.602;2022-10-15T06:22:47;98703.56;;;10.10;73.76
49342;BME280;35210;41.606;-87.602;2022-10-15T06:25:15;98705.06;;;10.03;72.96
49342;BME280;35210;41.606;-87.602;2022-10-15T06:27:44;98710.03;;;9.96;73.44
49342;BME280;35210;41.606;-87.602;2022-10-15T06:30:12;98715.97;;;9.88;74.01
49342;BME280;35210;41.606;-87.602;2022-10-15T06:32:46;98728.56;;;9.85;74.01
49342;BME280;35210;41.606;-87.602;2022-10-15T06:35:16;98719.94;;;9.83;74.91
49342;BME280;35210;41.606;-87.602;2022-10-15T06:37:44;98733.25;;;9.81;74.54
49342;BME280;35210;41.606;-87.602;2022-10-15T06:40:13;98732.44;;;9.81;74.28
49342;BME280;35210;41.606;-87.602;2022-10-15T06:42:42;98730.50;;;9.83;74.49
49342;BME280;35210;41.606;-87.602;2022-10-15T06:45:11;98739.81;;;9.87;74.01
49342;BME280;35210;41.606;-87.602;2022-10-15T06:47:40;98741.63;;;9.86;74.59
49342;BME280;35210;41.606;-87.602;2022-10-15T06:50:10;98741.88;;;9.83;73.88
49342;BME280;35210;41.606;-87.602;2022-10-15T06:52:38;98747.16;;;9.83;74.47
49342;BME280;35210;41.606;-87.602;2022-10-15T06:55:07;98749.09;;;9.81;74.68
49342;BME280;35210;41.606;-87.602;2022-10-15T06:57:36;98754.63;;;9.78;74.52
49342;BME280;35210;41.606;-87.602;2022-10-15T07:00:04;98753.91;;;9.76;74.89
49342;BME280;35210;41.606;-87.602;2022-10-15T07:02:34;98756.69;;;9.75;74.49
49342;BME280;35210;41.606;-87.602;2022-10-15T07:05:03;98771.91;;;9.71;74.46
49342;BME280;35210;41.606;-87.602;2022-10-15T07:07:35;98759.00;;;9.68;74.30
49342;BME280;35210;41.606;-87.602;2022-10-15T07:10:04;98772.16;;;9.68;73.77
49342;BME280;35210;41.606;-87.602;2022-10-15T07:12:32;98785.34;;;9.68;74.03
49342;BME280;35210;41.606;-87.602;2022-10-15T07:15:00;98793.56;;;9.65;73.70
49342;BME280;35210;41.606;-87.602;2022-10-15T07:17:28;98792.13;;;9.61;73.78
49342;BME280;35210;41.606;-87.602;2022-10-15T07:19:57;98791.16;;;9.62;73.17
49342;BME280;35210;41.606;-87.602;2022-10-15T07:22:26;98790.84;;;9.55;73.42
49342;BME280;35210;41.606;-87.602;2022-10-15T07:24:55;98801.25;;;9.57;73.81
49342;BME280;35210;41.606;-87.602;2022-10-15T07:27:25;98798.88;;;9.54;73.20
49342;BME280;35210;41.606;-87.602;2022-10-15T07:29:53;98807.03;;;9.51;73.15
49342;BME280;35210;41.606;-87.602;2022-10-15T07:32:21;98809.91;;;9.48;73.12
49342;BME280;35210;41.606;-87.602;2022-10-15T07:34:49;98811.72;;;9.47;73.38
49342;BME280;35210;41.606;-87.602;2022-10-15T07:37:17;98812.69;;;9.46;72.98
49342;BME280;35210;41.606;-87.602;2022-10-15T07:39:46;98812.34;;;9.40;73.43
49342;BME280;35210;41.606;-87.602;2022-10-15T07:42:19;98817.63;;;9.40;73.63
49342;BME280;35210;41.606;-87.602;2022-10-15T07:44:47;98815.94;;;9.39;73.24
49342;BME280;35210;41.606;-87.602;2022-10-15T07:47:16;98820.50;;;9.37;73.35
49342;BME280;35210;41.606;-87.602;2022-10-15T07:49:44;98821.47;;;9.36;72.63
49342;BME280;35210;41.606;-87.602;2022-10-15T07:52:13;98826.47;;;9.39;73.05
49342;BME280;35210;41.606;-87.602;2022-10-15T07:54:42;98825.06;;;9.35;73.08
49342;BME280;35210;41.606;-87.602;2022-10-15T07:57:10;98826.97;;;9.33;72.55
49342;BME280;35210;41.606;-87.602;2022-10-15T07:59:40;98830.56;;;9.32;71.88
49342;BME280;35210;41.606;-87.602;2022-10-15T08:02:14;98835.84;;;9.32;72.32
49342;BME280;35210;41.606;-87.602;2022-10-15T08:04:42;98839.44;;;9.31;71.98
49342;BME280;35210;41.606;-87.602;2022-10-15T08:07:11;98837.06;;;9.28;72.46
49342;BME280;35210;41.606;-87.602;2022-10-15T08:09:39;98837.06;;;9.28;72.14
49342;BME280;35210;41.606;-87.602;2022-10-15T08:12:07;98838.03;;;9.27;72.33
49342;BME280;35210;41.606;-87.602;2022-10-15T08:14:36;98842.34;;;9.16;72.11
49342;BME280;35210;41.606;-87.602;2022-10-15T08:17:07;98844.16;;;9.16;72.09
49342;BME280;35210;41.606;-87.602;2022-10-15T08:19:35;98852.88;;;9.16;72.33
49342;BME280;35210;41.606;-87.602;2022-10-15T08:22:03;98847.16;;;9.11;72.63
49342;BME280;35210;41.606;-87.602;2022-10-15T08:24:31;98864.63;;;9.12;72.94
49342;BME280;35210;41.606;-87.602;2022-10-15T08:26:59;98853.38;;;9.10;72.31
49342;BME280;35210;41.606;-87.602;2022-10-15T08:29:27;98859.84;;;9.06;72.61
49342;BME280;35210;41.606;-87.602;2022-10-15T08:31:55;98868.25;;;9.00;72.58
49342;BME280;35210;41.606;-87.602;2022-10-15T08:34:25;98866.31;;;9.02;72.46
49342;BME280;35210;41.606;-87.602;2022-10-15T08:36:53;98865.72;;;8.99;72.42
49342;BME280;35210;41.606;-87.602;2022-10-15T08:39:21;98869.19;;;8.99;72.13
49342;BME280;35210;41.606;-87.602;2022-10-15T08:41:51;98877.59;;;8.93;72.47
49342;BME280;35210;41.606;-87.602;2022-10-15T08:44:24;98884.78;;;8.91;73.43
49342;BME280;35210;41.606;-87.602;2022-10-15T08:46:57;98887.78;;;8.86;72.82
49342;BME280;35210;41.606;-87.602;2022-10-15T08:49:42;98886.94;;;8.86;72.75
49342;BME280;35210;41.606;-87.602;2022-10-15T08:52:18;98894.25;;;8.82;73.14
49342;BME280;35210;41.606;-87.602;2022-10-15T08:54:48;98891.03;;;8.79;72.79
49342;BME280;35210;41.606;-87.602;2022-10-15T08:57:21;98900.34;;;8.72;72.90
49342;BME280;35210;41.606;-87.602;2022-10-15T08:59:58;98900.81;;;8.66;73.31
49342;BME280;35210;41.606;-87.602;2022-10-15T09:02:34;98904.41;;;8.65;72.95
49342;BME280;35210;41.606;-87.602;2022-10-15T09:05:23;98908.84;;;8.64;73.84
49342;BME280;35210;41.606;-87.602;2022-10-15T09:08:01;98924.28;;;8.57;73.17
49342;BME280;35210;41.606;-87.602;2022-10-15T09:10:36;98925.69;;;8.50;72.74
49342;BME280;35210;41.606;-87.602;2022-10-15T09:13:12;98933.22;;;8.44;73.15
49342;BME280;35210;41.606;-87.602;2022-10-15T09:15:47;98936.69;;;8.44;73.13
49342;BME280;35210;41.606;-87.602;2022-10-15T09:18:20;98937.25;;;8.37;73.67
49342;BME280;35210;41.606;-87.602;2022-10-15T09:20:53;98944.03;;;8.28;73.50
49342;BME280;35210;41.606;-87.602;2022-10-15T09:23:23;98939.59;;;8.29;73.96
49342;BME280;35210;41.606;-87.602;2022-10-15T09:25:57;98939.59;;;8.29;74.13
49342;BME280;35210;41.606;-87.602;2022-10-15T09:28:31;98943.19;;;8.28;73.74
49342;BME280;35210;41.606;-87.602;2022-10-15T09:31:04;98945.09;;;8.25;74.05
49342;BME280;35210;41.606;-87.602;2022-10-15T09:33:38;98955.63;;;8.25;74.29
49342;BME280;35210;41.606;-87.602;2022-10-15T09:36:16;98965.28;;;8.14;73.95
49342;BME280;35210;41.606;-87.602;2022-10-15T09:38:54;98960.38;;;8.09;74.96
49342;BME280;35210;41.606;-87.602;2022-10-15T09:41:33;98962.88;;;8.11;75.30
49342;BME280;35210;41.606;-87.602;2022-10-15T09:44:03;98974.84;;;8.15;74.85
49342;BME280;35210;41.606;-87.602;2022-10-15T09:46:43;98979.84;;;8.18;75.00
49342;BME280;35210;41.606;-87.602;2022-10-15T09:49:14;98992.06;;;8.19;74.53
49342;BME280;35210;41.606;-87.602;2022-10-15T09:51:53;98999.00;;;8.20;74.78
49342;BME280;35210;41.606;-87.602;2022-10-15T09:54:33;99016.44;;;8.21;74.79
49342;BME280;35210;41.606;-87.602;2022-10-15T09:57:07;99011.78;;;8.13;74.60
49342;BME280;35210;41.606;-87.602;2022-10-15T09:59:37;99015.09;;;8.04;74.51
49342;BME280;35210;41.606;-87.602;2022-10-15T10:02:17;99012.06;;;7.98;75.25
49342;BME280;35210;41.606;-87.602;2022-10-15T10:04:46;99014.47;;;8.01;74.86
49342;BME280;35210;41.606;-87.602;2022-10-15T10:07:33;99006.34;;;8.04;74.72
49342;BME280;35210;41.606;-87.602;2022-10-15T10:10:04;99020.69;;;8.00;74.85
49342;BME280;35210;41.606;-87.602;2022-10-15T10:12:36;99019.00;;;7.99;74.32
49342;BME280;35210;41.606;-87.602;2022-10-15T10:15:07;99023.31;;;8.00;74.06
49342;BME280;35210;41.606;-87.602;2022-10-15T10:17:53;99028.91;;;7.95;74.49
49342;BME280;35210;41.606;-87.602;2022-10-15T10:20:23;99021.56;;;7.87;74.63
49342;BME280;35210;41.606;-87.602;2022-10-15T10:22:55;99035.44;;;7.89;74.41
49342;BME280;35210;41.606;-87.602;2022-10-15T10:25:36;99040.19;;;7.84;74.75
49342;BME280;35210;41.606;-87.602;2022-10-15T10:28:23;99048.81;;;7.86;74.37
49342;BME280;35210;41.606;-87.602;2022-10-15T10:31:01;99053.22;;;7.86;74.35
49342;BME280;35210;41.606;-87.602;2022-10-15T10:33:33;99046.91;;;7.88;74.41
49342;BME280;35210;41.606;-87.602;2022-10-15T10:36:04;99055.75;;;7.87;74.46
49342;BME280;35210;41.606;-87.602;2022-10-15T10:38:36;99058.47;;;7.86;74.61
49342;BME280;35210;41.606;-87.602;2022-10-15T10:41:06;99070.06;;;7.83;74.20
49342;BME280;35210;41.606;-87.602;2022-10-15T10:43:37;99068.88;;;7.87;74.04
49342;BME280;35210;41.606;-87.602;2022-10-15T10:46:16;99076.25;;;7.82;73.80
49342;BME280;35210;41.606;-87.602;2022-10-15T10:48:46;99066.06;;;7.78;74.12
49342;BME280;35210;41.606;-87.602;2022-10-15T10:51:17;99066.41;;;7.73;74.19
49342;BME280;35210;41.606;-87.602;2022-10-15T10:53:51;99070.09;;;7.71;75.01
49342;BME280;35210;41.606;-87.602;2022-10-15T10:56:21;99062.19;;;7.71;74.64
49342;BME280;35210;41.606;-87.602;2022-10-15T10:58:56;99063.78;;;7.73;74.79
49342;BME280;35210;41.606;-87.602;2022-10-15T11:01:26;99064.81;;;7.71;74.44
49342;BME280;35210;41.606;-87.602;2022-10-15T11:03:54;99067.34;;;7.72;74.70
49342;BME280;35210;41.606;-87.602;2022-10-15T11:06:41;99076.19;;;7.71;74.32
49342;BME280;35210;41.606;-87.602;2022-10-15T11:09:35;99079.75;;;7.70;74.17
49342;BME280;35210;41.606;-87.602;2022-10-15T11:12:23;99074.50;;;7.70;74.26
49342;BME280;35210;41.606;-87.602;2022-10-15T11:15:00;99074.72;;;7.67;74.35
49342;BME280;35210;41.606;-87.602;2022-10-15T11:17:41;99082.72;;;7.66;73.93
49342;BME280;35210;41.606;-87.602;2022-10-15T11:20:18;99083.75;;;7.63;73.76
49342;BME280;35210;41.606;-87.602;2022-10-15T11:22:59;99097.53;;;7.67;73.71
49342;BME280;35210;41.606;-87.602;2022-10-15T11:25:42;99090.69;;;7.64;73.69
49342;BME280;35210;41.606;-87.602;2022-10-15T11:28:26;99103.31;;;7.59;74.08
49342;BME280;35210;41.606;-87.602;2022-10-15T11:31:03;99097.13;;;7.60;74.12
49342;BME280;35210;41.606;-87.602;2022-10-15T11:33:47;99103.31;;;7.59;74.15
49342;BME280;35210;41.606;-87.602;2022-10-15T11:36:37;99105.22;;;7.57;74.10
49342;BME280;35210;41.606;-87.602;2022-10-15T11:42:09;99120.03;;;7.58;73.63
49342;BME280;35210;41.606;-87.602;2022-10-15T11:44:57;99125.50;;;7.55;73.64
49342;BME280;35210;41.606;-87.602;2022-10-15T11:47:39;99126.03;;;7.47;73.58
49342;BME280;35210;41.606;-87.602;2022-10-15T11:50:26;99132.56;;;7.42;73.51
49342;BME280;35210;41.606;-87.602;2022-10-15T11:56:05;99150.13;;;7.29;73.77
49342;BME280;35210;41.606;-87.602;2022-10-15T11:58:43;99143.09;;;7.29;74.42
49342;BME280;35210;41.606;-87.602;2022-10-15T12:01:18;99144.97;;;7.27;74.53
49342;BME280;35210;41.606;-87.602;2022-10-15T12:03:52;99144.34;;;7.23;74.66
49342;BME280;35210;41.606;-87.602;2022-10-15T12:06:25;99146.22;;;7.21;74.46
49342;BME280;35210;41.606;-87.602;2022-10-15T12:08:57;99142.66;;;7.22;74.47
49342;BME280;35210;41.606;-87.602;2022-10-15T12:11:38;99150.44;;;7.24;74.64
49342;BME280;35210;41.606;-87.602;2022-10-15T12:14:16;99153.91;;;7.24;74.50
49342;BME280;35210;41.606;-87.602;2022-10-15T12:16:54;99154.00;;;7.23;74.68
49342;BME280;35210;41.606;-87.602;2022-10-15T12:19:28;99152.22;;;7.23;74.60
49342;BME280;35210;41.606;-87.602;2022-10-15T12:22:06;99150.31;;;7.25;74.67
49342;BME280;35210;41.606;-87.602;2022-10-15T12:24:54;99145.19;;;7.24;74.86
49342;BME280;35210;41.606;-87.602;2022-10-15T12:27:35;99157.69;;;7.20;75.06
49342;BME280;35210;41.606;-87.602;2022-10-15T12:30:19;99166.50;;;7.19;74.46
49342;BME280;35210;41.606;-87.602;2022-10-15T12:32:48;99185.09;;;7.16;74.41
49342;BME280;35210;41.606;-87.602;2022-10-15T12:35:33;99195.25;;;7.08;75.00
49342;BME280;35210;41.606;-87.602;2022-10-15T12:38:11;99197.44;;;7.02;75.40
49342;BME280;35210;41.606;-87.602;2022-10-15T12:40:46;99205.41;;;7.00;75.23
49342;BME280;35210;41.606;-87.602;2022-10-15T12:43:22;99205.38;;;6.87;75.33
49342;BME280;35210;41.606;-87.602;2022-10-15T12:45:55;99215.84;;;6.75;76.07
49342;BME280;35210;41.606;-87.602;2022-10-15T12:48:31;99222.75;;;6.76;75.76
49342;BME280;35210;41.606;-87.602;2022-10-15T12:54:01;99243.09;;;6.59;75.99
49342;BME280;35210;41.606;-87.602;2022-10-15T12:56:37;99246.66;;;6.58;76.38
49342;BME280;35210;41.606;-87.602;2022-10-15T12:59:27;99247.25;;;6.35;77.44
49342;BME280;35210;41.606;-87.602;2022-10-15T13:01:57;99235.19;;;6.04;78.56
49342;BME280;35210;41.606;-87.602;2022-10-15T13:04:36;99240.81;;;6.12;78.17
49342;BME280;35210;41.606;-87.602;2022-10-15T13:07:05;99238.81;;;6.30;78.33
49342;BME280;35210;41.606;-87.602;2022-10-15T13:09:34;99247.72;;;6.28;78.09
49342;BME280;35210;41.606;-87.602;2022-10-15T13:12:03;99256.63;;;6.11;78.66
49342;BME280;35210;41.606;-87.602;2022-10-15T13:14:33;99256.63;;;6.11;78.54
49342;BME280;35210;41.606;-87.602;2022-10-15T13:17:14;99263.19;;;6.18;79.36
49342;BME280;35210;41.606;-87.602;2022-10-15T13:19:47;99266.47;;;6.21;78.93
49342;BME280;35210;41.606;-87.602;2022-10-15T13:22:22;99261.88;;;6.11;78.99
49342;BME280;35210;41.606;-87.602;2022-10-15T13:24:50;99254.38;;;6.19;78.92
49342;BME280;35210;41.606;-87.602;2022-10-15T13:27:23;99243.16;;;6.17;78.37